sensor_id;sensor_type;location;lat;lon;timestamp;P1;durP1;ratioP1;P2;durP2;ratioP2
11614;SDS011;5863;52.832;4.758;2022-11-10T00:01:02;12.98;;;2.60;;
11614;SDS011;5863;52.832;4.758;2022-11-10T00:03:29;12.13;;;2.33;;
11614;SDS011;5863;52.832;4.758;2022-11-10T00:05:56;12.43;;;2.60;;
11614;SDS011;5863;52.832;4.758;2022-11-10T00:08:23;8.43;;;1.92;;
11614;SDS011;5863;52.832;4.758;2022-11-10T00:10:49;15.65;;;2.50;;
11614;SDS011;5863;52.832;4.758;2022-11-10T00:13:24;10.63;;;2.08;;
11614;SDS011;5863;52.832;4.758;2022-11-10T00:15:52;9.23;;;1.95;;
11614;SDS011;5863;52.832;4.758;2022-11-10T00:18:37;8.60;;;1.90;;
11614;SDS011;5863;52.832;4.758;2022-11-10T00:21:04;10.63;;;2.60;;
11614;SDS011;5863;52.832;4.758;2022-11-10T00:23:32;15.60;;;2.38;;
11614;SDS011;5863;52.832;4.758;2022-11-10T00:25:59;11.20;;;2.00;;
11614;SDS011;5863;52.832;4.758;2022-11-10T00:28:28;12.55;;;2.55;;
11614;SDS011;5863;52.832;4.758;2022-11-10T00:30:55;8.57;;;2.20;;
11614;SDS011;5863;52.832;4.758;2022-11-10T00:33:22;14.15;;;3.13;;
11614;SDS011;5863;52.832;4.758;2022-11-10T00:35:49;10.15;;;2.42;;
11614;SDS011;5863;52.832;4.758;2022-11-10T00:38:15;9.23;;;2.17;;
11614;SDS011;5863;52.832;4.758;2022-11-10T00:40:42;9.10;;;2.17;;
11614;SDS011;5863;52.832;4.758;2022-11-10T00:43:09;11.23;;;2.33;;
11614;SDS011;5863;52.832;4.758;2022-11-10T00:45:37;9.30;;;1.92;;
11614;SDS011;5863;52.832;4.758;2022-11-10T00:48:07;8.50;;;2.08;;
11614;SDS011;5863;52.832;4.758;2022-11-10T00:50:33;10.05;;;2.42;;
11614;SDS011;5863;52.832;4.758;2022-11-10T00:53:00;9.48;;;2.65;;
11614;SDS011;5863;52.832;4.758;2022-11-10T00:55:27;12.25;;;2.28;;
11614;SDS011;5863;52.832;4.758;2022-11-10T00:57:53;10.63;;;2.58;;
11614;SDS011;5863;52.832;4.758;2022-11-10T01:00:20;16.30;;;3.40;;
11614;SDS011;5863;52.832;4.758;2022-11-10T01:02:48;14.07;;;2.63;;
11614;SDS011;5863;52.832;4.758;2022-11-10T01:05:15;13.23;;;2.80;;
11614;SDS011;5863;52.832;4.758;2022-11-10T01:07:42;12.85;;;2.47;;
11614;SDS011;5863;52.832;4.758;2022-11-10T01:10:09;15.57;;;2.90;;
11614;SDS011;5863;52.832;4.758;2022-11-10T01:12:35;12.25;;;2.83;;
11614;SDS011;5863;52.832;4.758;2022-11-10T01:15:02;14.68;;;2.47;;
11614;SDS011;5863;52.832;4.758;2022-11-10T01:17:29;14.30;;;2.55;;
11614;SDS011;5863;52.832;4.758;2022-11-10T01:19:57;7.15;;;2.15;;
11614;SDS011;5863;52.832;4.758;2022-11-10T01:22:24;16.90;;;2.92;;
11614;SDS011;5863;52.832;4.758;2022-11-10T01:24:51;15.52;;;2.55;;
11614;SDS011;5863;52.832;4.758;2022-11-10T01:27:17;15.75;;;2.60;;
11614;SDS011;5863;52.832;4.758;2022-11-10T01:29:44;16.17;;;3.35;;
11614;SDS011;5863;52.832;4.758;2022-11-10T01:32:11;14.13;;;2.55;;
11614;SDS011;5863;52.832;4.758;2022-11-10T01:34:38;11.13;;;2.78;;
11614;SDS011;5863;52.832;4.758;2022-11-10T01:37:06;16.40;;;2.58;;
11614;SDS011;5863;52.832;4.758;2022-11-10T01:39:32;15.15;;;2.40;;
11614;SDS011;5863;52.832;4.758;2022-11-10T01:41:59;11.65;;;2.33;;
11614;SDS011;5863;52.832;4.758;2022-11-10T01:44:26;14.90;;;2.53;;
11614;SDS011;5863;52.832;4.758;2022-11-10T01:46:52;8.30;;;1.90;;
11614;SDS011;5863;52.832;4.758;2022-11-10T01:49:19;10.10;;;2.33;;
11614;SDS011;5863;52.832;4.758;2022-11-10T01:51:50;9.55;;;2.17;;
11614;SDS011;5863;52.832;4.758;2022-11-10T01:54:21;8.85;;;2.50;;
11614;SDS011;5863;52.832;4.758;2022-11-10T01:56:53;12.80;;;2.17;;
11614;SDS011;5863;52.832;4.758;2022-11-10T01:59:23;9.43;;;2.33;;
11614;SDS011;5863;52.832;4.758;2022-11-10T02:01:53;16.63;;;2.58;;
11614;SDS011;5863;52.832;4.758;2022-11-10T02:04:23;14.93;;;3.33;;
11614;SDS011;5863;52.832;4.758;2022-11-10T02:06:51;18.15;;;2.75;;
11614;SDS011;5863;52.832;4.758;2022-11-10T02:09:20;14.48;;;2.85;;
11614;SDS011;5863;52.832;4.758;2022-11-10T02:11:47;10.82;;;2.45;;
11614;SDS011;5863;52.832;4.758;2022-11-10T02:14:18;9.50;;;2.50;;
11614;SDS011;5863;52.832;4.758;2022-11-10T02:16:45;13.23;;;2.58;;
11614;SDS011;5863;52.832;4.758;2022-11-10T02:19:13;11.50;;;2.80;;
11614;SDS011;5863;52.832;4.758;2022-11-10T02:21:43;11.63;;;2.30;;
11614;SDS011;5863;52.832;4.758;2022-11-10T02:24:09;12.85;;;2.72;;
11614;SDS011;5863;52.832;4.758;2022-11-10T02:26:36;17.00;;;3.17;;
11614;SDS011;5863;52.832;4.758;2022-11-10T02:29:07;11.15;;;2.72;;
11614;SDS011;5863;52.832;4.758;2022-11-10T02:31:33;16.65;;;3.05;;
11614;SDS011;5863;52.832;4.758;2022-11-10T02:34:00;12.32;;;2.60;;
11614;SDS011;5863;52.832;4.758;2022-11-10T02:36:27;14.82;;;3.28;;
11614;SDS011;5863;52.832;4.758;2022-11-10T02:38:55;15.57;;;2.60;;
11614;SDS011;5863;52.832;4.758;2022-11-10T02:41:22;14.55;;;3.10;;
11614;SDS011;5863;52.832;4.758;2022-11-10T02:43:48;12.60;;;2.42;;
11614;SDS011;5863;52.832;4.758;2022-11-10T02:46:15;9.80;;;2.35;;
11614;SDS011;5863;52.832;4.758;2022-11-10T02:48:42;21.17;;;2.90;;
11614;SDS011;5863;52.832;4.758;2022-11-10T02:51:09;21.02;;;3.25;;
11614;SDS011;5863;52.832;4.758;2022-11-10T02:53:36;16.02;;;3.00;;
11614;SDS011;5863;52.832;4.758;2022-11-10T02:56:04;16.08;;;3.47;;
11614;SDS011;5863;52.832;4.758;2022-11-10T02:58:31;17.17;;;2.90;;
11614;SDS011;5863;52.832;4.758;2022-11-10T03:00:58;13.88;;;2.67;;
11614;SDS011;5863;52.832;4.758;2022-11-10T03:03:25;13.55;;;2.80;;
11614;SDS011;5863;52.832;4.758;2022-11-10T03:05:51;16.23;;;3.00;;
11614;SDS011;5863;52.832;4.758;2022-11-10T03:08:18;15.20;;;2.65;;
11614;SDS011;5863;52.832;4.758;2022-11-10T03:10:45;16.98;;;2.88;;
11614;SDS011;5863;52.832;4.758;2022-11-10T03:13:13;8.93;;;2.53;;
11614;SDS011;5863;52.832;4.758;2022-11-10T03:15:40;11.15;;;2.92;;
11614;SDS011;5863;52.832;4.758;2022-11-10T03:18:06;9.25;;;2.55;;
11614;SDS011;5863;52.832;4.758;2022-11-10T03:20:33;10.73;;;2.80;;
11614;SDS011;5863;52.832;4.758;2022-11-10T03:23:00;17.33;;;2.85;;
11614;SDS011;5863;52.832;4.758;2022-11-10T03:25:28;9.45;;;2.53;;
11614;SDS011;5863;52.832;4.758;2022-11-10T03:27:54;11.57;;;2.38;;
11614;SDS011;5863;52.832;4.758;2022-11-10T03:30:22;17.40;;;3.25;;
11614;SDS011;5863;52.832;4.758;2022-11-10T03:32:49;19.40;;;3.35;;
11614;SDS011;5863;52.832;4.758;2022-11-10T03:35:16;13.20;;;2.72;;
11614;SDS011;5863;52.832;4.758;2022-11-10T03:37:43;18.00;;;3.42;;
11614;SDS011;5863;52.832;4.758;2022-11-10T03:40:09;14.43;;;3.03;;
11614;SDS011;5863;52.832;4.758;2022-11-10T03:42:40;17.55;;;3.20;;
11614;SDS011;5863;52.832;4.758;2022-11-10T03:45:07;20.02;;;3.60;;
11614;SDS011;5863;52.832;4.758;2022-11-10T03:47:36;16.45;;;3.05;;
11614;SDS011;5863;52.832;4.758;2022-11-10T03:50:03;10.07;;;2.67;;
11614;SDS011;5863;52.832;4.758;2022-11-10T03:52:30;15.68;;;3.80;;
11614;SDS011;5863;52.832;4.758;2022-11-10T03:54:57;12.57;;;3.40;;
11614;SDS011;5863;52.832;4.758;2022-11-10T03:57:24;11.75;;;2.85;;
11614;SDS011;5863;52.832;4.758;2022-11-10T03:59:50;11.07;;;2.70;;
11614;SDS011;5863;52.832;4.758;2022-11-10T04:02:17;17.02;;;2.67;;
11614;SDS011;5863;52.832;4.758;2022-11-10T04:04:45;17.63;;;2.92;;
11614;SDS011;5863;52.832;4.758;2022-11-10T04:07:30;16.88;;;4.05;;
11614;SDS011;5863;52.832;4.758;2022-11-10T04:10:22;10.75;;;2.67;;
11614;SDS011;5863;52.832;4.758;2022-11-10T04:12:49;13.35;;;2.83;;
11614;SDS011;5863;52.832;4.758;2022-11-10T04:15:29;16.92;;;3.00;;
11614;SDS011;5863;52.832;4.758;2022-11-10T04:18:10;17.33;;;3.67;;
11614;SDS011;5863;52.832;4.758;2022-11-10T04:20:51;19.70;;;3.20;;
11614;SDS011;5863;52.832;4.758;2022-11-10T04:23:19;16.67;;;2.97;;
11614;SDS011;5863;52.832;4.758;2022-11-10T04:25:52;18.13;;;3.33;;
11614;SDS011;5863;52.832;4.758;2022-11-10T04:28:40;11.60;;;2.97;;
11614;SDS011;5863;52.832;4.758;2022-11-10T04:31:07;14.70;;;3.55;;
11614;SDS011;5863;52.832;4.758;2022-11-10T04:33:35;15.35;;;3.15;;
11614;SDS011;5863;52.832;4.758;2022-11-10T04:36:03;20.40;;;3.45;;
11614;SDS011;5863;52.832;4.758;2022-11-10T04:38:31;18.60;;;3.42;;
11614;SDS011;5863;52.832;4.758;2022-11-10T04:40:58;14.70;;;3.03;;
11614;SDS011;5863;52.832;4.758;2022-11-10T04:43:24;17.38;;;3.83;;
11614;SDS011;5863;52.832;4.758;2022-11-10T04:45:51;19.23;;;3.45;;
11614;SDS011;5863;52.832;4.758;2022-11-10T04:48:18;14.43;;;3.03;;
11614;SDS011;5863;52.832;4.758;2022-11-10T04:50:45;17.05;;;2.88;;
11614;SDS011;5863;52.832;4.758;2022-11-10T04:53:13;19.33;;;3.35;;
11614;SDS011;5863;52.832;4.758;2022-11-10T04:55:40;15.40;;;3.25;;
11614;SDS011;5863;52.832;4.758;2022-11-10T04:58:09;14.43;;;2.97;;
11614;SDS011;5863;52.832;4.758;2022-11-10T05:00:36;12.35;;;3.38;;
11614;SDS011;5863;52.832;4.758;2022-11-10T05:03:04;12.70;;;2.83;;
11614;SDS011;5863;52.832;4.758;2022-11-10T05:05:33;16.73;;;3.38;;
11614;SDS011;5863;52.832;4.758;2022-11-10T05:07:59;17.73;;;3.67;;
11614;SDS011;5863;52.832;4.758;2022-11-10T05:10:28;14.20;;;3.38;;
11614;SDS011;5863;52.832;4.758;2022-11-10T05:12:55;18.55;;;3.15;;
11614;SDS011;5863;52.832;4.758;2022-11-10T05:15:23;18.48;;;3.65;;
11614;SDS011;5863;52.832;4.758;2022-11-10T05:17:50;15.02;;;3.03;;
11614;SDS011;5863;52.832;4.758;2022-11-10T05:20:18;15.45;;;3.65;;
11614;SDS011;5863;52.832;4.758;2022-11-10T05:22:46;18.50;;;3.65;;
11614;SDS011;5863;52.832;4.758;2022-11-10T05:25:29;15.70;;;2.90;;
11614;SDS011;5863;52.832;4.758;2022-11-10T05:27:56;21.55;;;4.72;;
11614;SDS011;5863;52.832;4.758;2022-11-10T05:30:22;15.75;;;2.88;;
11614;SDS011;5863;52.832;4.758;2022-11-10T05:32:49;17.63;;;3.05;;
11614;SDS011;5863;52.832;4.758;2022-11-10T05:35:16;18.67;;;2.95;;
11614;SDS011;5863;52.832;4.758;2022-11-10T05:37:42;19.10;;;3.33;;
11614;SDS011;5863;52.832;4.758;2022-11-10T05:40:09;15.68;;;2.85;;
11614;SDS011;5863;52.832;4.758;2022-11-10T05:42:42;13.48;;;2.67;;
11614;SDS011;5863;52.832;4.758;2022-11-10T05:45:09;14.07;;;2.85;;
11614;SDS011;5863;52.832;4.758;2022-11-10T05:47:36;13.98;;;3.17;;
11614;SDS011;5863;52.832;4.758;2022-11-10T05:50:03;15.77;;;3.45;;
11614;SDS011;5863;52.832;4.758;2022-11-10T05:52:31;23.88;;;3.78;;
11614;SDS011;5863;52.832;4.758;2022-11-10T05:54:58;12.25;;;2.75;;
11614;SDS011;5863;52.832;4.758;2022-11-10T05:57:25;19.63;;;3.13;;
11614;SDS011;5863;52.832;4.758;2022-11-10T05:59:53;19.50;;;3.17;;
11614;SDS011;5863;52.832;4.758;2022-11-10T06:02:20;17.05;;;2.67;;
11614;SDS011;5863;52.832;4.758;2022-11-10T06:04:47;18.50;;;3.25;;
11614;SDS011;5863;52.832;4.758;2022-11-10T06:07:13;12.10;;;3.03;;
11614;SDS011;5863;52.832;4.758;2022-11-10T06:09:40;14.48;;;2.70;;
11614;SDS011;5863;52.832;4.758;2022-11-10T06:12:07;16.90;;;3.20;;
11614;SDS011;5863;52.832;4.758;2022-11-10T06:14:33;13.63;;;3.20;;
11614;SDS011;5863;52.832;4.758;2022-11-10T06:17:01;15.82;;;3.90;;
11614;SDS011;5863;52.832;4.758;2022-11-10T06:19:28;14.05;;;2.80;;
11614;SDS011;5863;52.832;4.758;2022-11-10T06:21:55;18.63;;;3.28;;
11614;SDS011;5863;52.832;4.758;2022-11-10T06:24:22;20.77;;;3.25;;
11614;SDS011;5863;52.832;4.758;2022-11-10T06:26:49;18.75;;;3.45;;
11614;SDS011;5863;52.832;4.758;2022-11-10T06:29:16;18.13;;;3.20;;
11614;SDS011;5863;52.832;4.758;2022-11-10T06:31:43;16.17;;;3.13;;
11614;SDS011;5863;52.832;4.758;2022-11-10T06:34:11;16.23;;;3.67;;
11614;SDS011;5863;52.832;4.758;2022-11-10T06:36:37;20.45;;;3.80;;
11614;SDS011;5863;52.832;4.758;2022-11-10T06:39:04;19.23;;;3.28;;
11614;SDS011;5863;52.832;4.758;2022-11-10T06:41:31;22.20;;;3.72;;
11614;SDS011;5863;52.832;4.758;2022-11-10T06:43:58;15.73;;;3.40;;
11614;SDS011;5863;52.832;4.758;2022-11-10T06:46:25;14.93;;;3.30;;
11614;SDS011;5863;52.832;4.758;2022-11-10T06:48:52;13.48;;;2.47;;
11614;SDS011;5863;52.832;4.758;2022-11-10T06:51:20;15.50;;;3.15;;
11614;SDS011;5863;52.832;4.758;2022-11-10T06:53:46;16.17;;;3.13;;
11614;SDS011;5863;52.832;4.758;2022-11-10T06:56:13;16.70;;;3.15;;
11614;SDS011;5863;52.832;4.758;2022-11-10T06:58:39;19.10;;;3.70;;
11614;SDS011;5863;52.832;4.758;2022-11-10T07:01:06;19.73;;;3.30;;
11614;SDS011;5863;52.832;4.758;2022-11-10T07:03:33;14.98;;;3.58;;
11614;SDS011;5863;52.832;4.758;2022-11-10T07:06:01;14.65;;;3.00;;
11614;SDS011;5863;52.832;4.758;2022-11-10T07:08:29;14.88;;;3.67;;
11614;SDS011;5863;52.832;4.758;2022-11-10T07:10:56;16.95;;;3.30;;
11614;SDS011;5863;52.832;4.758;2022-11-10T07:13:23;17.55;;;3.63;;
11614;SDS011;5863;52.832;4.758;2022-11-10T07:15:49;16.65;;;3.50;;
11614;SDS011;5863;52.832;4.758;2022-11-10T07:18:16;14.65;;;2.90;;
11614;SDS011;5863;52.832;4.758;2022-11-10T07:20:43;17.95;;;3.63;;
11614;SDS011;5863;52.832;4.758;2022-11-10T07:23:11;14.63;;;3.35;;
11614;SDS011;5863;52.832;4.758;2022-11-10T07:25:39;18.73;;;3.20;;
11614;SDS011;5863;52.832;4.758;2022-11-10T07:28:06;18.75;;;3.20;;
11614;SDS011;5863;52.832;4.758;2022-11-10T07:30:34;13.13;;;3.33;;
11614;SDS011;5863;52.832;4.758;2022-11-10T07:33:02;15.60;;;2.97;;
11614;SDS011;5863;52.832;4.758;2022-11-10T07:35:30;14.85;;;3.20;;
11614;SDS011;5863;52.832;4.758;2022-11-10T07:38:00;17.20;;;3.30;;
11614;SDS011;5863;52.832;4.758;2022-11-10T07:40:28;17.25;;;3.03;;
11614;SDS011;5863;52.832;4.758;2022-11-10T07:42:56;18.45;;;3.05;;
11614;SDS011;5863;52.832;4.758;2022-11-10T07:45:23;20.50;;;3.30;;
11614;SDS011;5863;52.832;4.758;2022-11-10T07:47:50;17.45;;;3.50;;
11614;SDS011;5863;52.832;4.758;2022-11-10T07:50:17;19.55;;;3.28;;
11614;SDS011;5863;52.832;4.758;2022-11-10T07:52:44;17.38;;;3.50;;
11614;SDS011;5863;52.832;4.758;2022-11-10T07:55:10;16.27;;;3.17;;
11614;SDS011;5863;52.832;4.758;2022-11-10T07:57:37;13.50;;;3.40;;
11614;SDS011;5863;52.832;4.758;2022-11-10T08:00:06;17.15;;;3.17;;
11614;SDS011;5863;52.832;4.758;2022-11-10T08:02:33;22.98;;;3.30;;
11614;SDS011;5863;52.832;4.758;2022-11-10T08:05:00;20.02;;;4.00;;
11614;SDS011;5863;52.832;4.758;2022-11-10T08:07:26;18.17;;;3.80;;
11614;SDS011;5863;52.832;4.758;2022-11-10T08:09:53;13.60;;;3.13;;
11614;SDS011;5863;52.832;4.758;2022-11-10T08:12:20;16.00;;;3.00;;
11614;SDS011;5863;52.832;4.758;2022-11-10T08:14:47;14.73;;;2.80;;
11614;SDS011;5863;52.832;4.758;2022-11-10T08:17:15;16.95;;;3.47;;
11614;SDS011;5863;52.832;4.758;2022-11-10T08:19:41;11.23;;;2.58;;
11614;SDS011;5863;52.832;4.758;2022-11-10T08:22:08;16.10;;;2.90;;
11614;SDS011;5863;52.832;4.758;2022-11-10T08:24:35;19.48;;;3.35;;
11614;SDS011;5863;52.832;4.758;2022-11-10T08:27:02;18.02;;;3.42;;
11614;SDS011;5863;52.832;4.758;2022-11-10T08:29:29;15.43;;;2.55;;
11614;SDS011;5863;52.832;4.758;2022-11-10T08:31:56;14.43;;;3.08;;
11614;SDS011;5863;52.832;4.758;2022-11-10T08:34:24;15.10;;;3.08;;
11614;SDS011;5863;52.832;4.758;2022-11-10T08:36:51;18.23;;;3.60;;
11614;SDS011;5863;52.832;4.758;2022-11-10T08:39:17;15.05;;;3.38;;
11614;SDS011;5863;52.832;4.758;2022-11-10T08:41:44;22.38;;;3.47;;
11614;SDS011;5863;52.832;4.758;2022-11-10T08:44:11;15.10;;;2.85;;
11614;SDS011;5863;52.832;4.758;2022-11-10T08:46:38;11.68;;;2.95;;
11614;SDS011;5863;52.832;4.758;2022-11-10T08:49:08;11.73;;;2.72;;
11614;SDS011;5863;52.832;4.758;2022-11-10T08:51:36;14.80;;;3.55;;
11614;SDS011;5863;52.832;4.758;2022-11-10T08:54:03;17.80;;;3.00;;
11614;SDS011;5863;52.832;4.758;2022-11-10T08:56:29;20.10;;;2.97;;
11614;SDS011;5863;52.832;4.758;2022-11-10T08:58:56;14.90;;;3.13;;
11614;SDS011;5863;52.832;4.758;2022-11-10T09:01:23;15.77;;;3.13;;
11614;SDS011;5863;52.832;4.758;2022-11-10T09:03:49;10.73;;;2.80;;
11614;SDS011;5863;52.832;4.758;2022-11-10T09:06:16;13.10;;;3.03;;
11614;SDS011;5863;52.832;4.758;2022-11-10T09:08:44;12.90;;;3.05;;
11614;SDS011;5863;52.832;4.758;2022-11-10T09:11:11;14.23;;;2.80;;
11614;SDS011;5863;52.832;4.758;2022-11-10T09:13:37;12.45;;;2.50;;
11614;SDS011;5863;52.832;4.758;2022-11-10T09:16:04;16.75;;;3.35;;
11614;SDS011;5863;52.832;4.758;2022-11-10T09:18:31;23.52;;;3.28;;
11614;SDS011;5863;52.832;4.758;2022-11-10T09:21:00;13.65;;;2.90;;
11614;SDS011;5863;52.832;4.758;2022-11-10T09:23:27;14.07;;;2.70;;
11614;SDS011;5863;52.832;4.758;2022-11-10T09:25:55;18.27;;;2.95;;
11614;SDS011;5863;52.832;4.758;2022-11-10T09:28:22;12.80;;;2.50;;
11614;SDS011;5863;52.832;4.758;2022-11-10T09:30:50;18.55;;;3.03;;
11614;SDS011;5863;52.832;4.758;2022-11-10T09:33:18;20.90;;;3.25;;
11614;SDS011;5863;52.832;4.758;2022-11-10T09:35:45;21.02;;;3.67;;
11614;SDS011;5863;52.832;4.758;2022-11-10T09:38:11;12.27;;;2.75;;
11614;SDS011;5863;52.832;4.758;2022-11-10T09:40:42;17.75;;;2.92;;
11614;SDS011;5863;52.832;4.758;2022-11-10T09:43:19;14.68;;;3.05;;
11614;SDS011;5863;52.832;4.758;2022-11-10T09:45:51;21.05;;;3.25;;
11614;SDS011;5863;52.832;4.758;2022-11-10T09:48:21;19.80;;;3.60;;
11614;SDS011;5863;52.832;4.758;2022-11-10T09:50:53;17.02;;;2.88;;
11614;SDS011;5863;52.832;4.758;2022-11-10T09:53:23;13.57;;;3.00;;
11614;SDS011;5863;52.832;4.758;2022-11-10T09:55:54;23.35;;;3.75;;
11614;SDS011;5863;52.832;4.758;2022-11-10T09:58:28;15.95;;;3.17;;
11614;SDS011;5863;52.832;4.758;2022-11-10T10:01:02;15.10;;;3.08;;
11614;SDS011;5863;52.832;4.758;2022-11-10T10:03:40;14.38;;;3.47;;
11614;SDS011;5863;52.832;4.758;2022-11-10T10:06:13;14.05;;;2.97;;
11614;SDS011;5863;52.832;4.758;2022-11-10T10:11:35;20.08;;;4.60;;
11614;SDS011;5863;52.832;4.758;2022-11-10T10:14:23;16.48;;;3.67;;
11614;SDS011;5863;52.832;4.758;2022-11-10T10:17:11;13.77;;;2.90;;
11614;SDS011;5863;52.832;4.758;2022-11-10T10:19:47;17.42;;;3.08;;
11614;SDS011;5863;52.832;4.758;2022-11-10T10:22:30;15.32;;;3.60;;
11614;SDS011;5863;52.832;4.758;2022-11-10T10:25:17;15.93;;;3.28;;
11614;SDS011;5863;52.832;4.758;2022-11-10T10:27:46;16.20;;;2.95;;
11614;SDS011;5863;52.832;4.758;2022-11-10T10:30:19;17.33;;;3.35;;
11614;SDS011;5863;52.832;4.758;2022-11-10T10:32:46;18.92;;;3.70;;
11614;SDS011;5863;52.832;4.758;2022-11-10T10:35:13;21.70;;;3.50;;
11614;SDS011;5863;52.832;4.758;2022-11-10T10:37:43;17.27;;;3.80;;
11614;SDS011;5863;52.832;4.758;2022-11-10T10:40:14;17.88;;;3.53;;
11614;SDS011;5863;52.832;4.758;2022-11-10T10:42:42;18.40;;;3.15;;
11614;SDS011;5863;52.832;4.758;2022-11-10T10:45:13;20.70;;;3.78;;
11614;SDS011;5863;52.832;4.758;2022-11-10T10:47:43;19.08;;;3.40;;
11614;SDS011;5863;52.832;4.758;2022-11-10T10:50:20;22.83;;;3.30;;
11614;SDS011;5863;52.832;4.758;2022-11-10T10:53:04;15.40;;;3.75;;
11614;SDS011;5863;52.832;4.758;2022-11-10T10:55:35;21.35;;;3.97;;
11614;SDS011;5863;52.832;4.758;2022-11-10T10:58:03;22.35;;;4.45;;
11614;SDS011;5863;52.832;4.758;2022-11-10T11:00:30;24.17;;;3.80;;
11614;SDS011;5863;52.832;4.758;2022-11-10T11:05:37;23.88;;;4.78;;
11614;SDS011;5863;52.832;4.758;2022-11-10T11:08:04;23.73;;;4.82;;
11614;SDS011;5863;52.832;4.758;2022-11-10T11:10:32;18.80;;;3.55;;
11614;SDS011;5863;52.832;4.758;2022-11-10T11:13:11;26.20;;;4.60;;
11614;SDS011;5863;52.832;4.758;2022-11-10T11:15:39;17.20;;;3.50;;
11614;SDS011;5863;52.832;4.758;2022-11-10T11:18:11;19.95;;;3.67;;
11614;SDS011;5863;52.832;4.758;2022-11-10T11:20:42;16.85;;;3.38;;
11614;SDS011;5863;52.832;4.758;2022-11-10T11:23:17;20.88;;;3.85;;
11614;SDS011;5863;52.832;4.758;2022-11-10T11:25:56;15.77;;;3.47;;
11614;SDS011;5863;52.832;4.758;2022-11-10T11:28:29;18.45;;;4.10;;
11614;SDS011;5863;52.832;4.758;2022-11-10T11:31:07;18.90;;;3.30;;
11614;SDS011;5863;52.832;4.758;2022-11-10T11:33:43;13.88;;;3.90;;
11614;SDS011;5863;52.832;4.758;2022-11-10T11:36:15;16.63;;;5.65;;
11614;SDS011;5863;52.832;4.758;2022-11-10T11:38:55;17.40;;;3.28;;
11614;SDS011;5863;52.832;4.758;2022-11-10T11:41:32;20.98;;;3.53;;
11614;SDS011;5863;52.832;4.758;2022-11-10T11:44:13;18.77;;;3.83;;
11614;SDS011;5863;52.832;4.758;2022-11-10T11:46:48;17.80;;;3.22;;
11614;SDS011;5863;52.832;4.758;2022-11-10T11:49:31;16.58;;;3.53;;
11614;SDS011;5863;52.832;4.758;2022-11-10T11:52:10;14.38;;;3.25;;
11614;SDS011;5863;52.832;4.758;2022-11-10T11:54:53;19.55;;;3.63;;
11614;SDS011;5863;52.832;4.758;2022-11-10T11:57:30;15.48;;;3.22;;
11614;SDS011;5863;52.832;4.758;2022-11-10T12:00:07;19.05;;;3.13;;
11614;SDS011;5863;52.832;4.758;2022-11-10T12:05:48;19.48;;;3.00;;
11614;SDS011;5863;52.832;4.758;2022-11-10T12:08:23;14.40;;;3.35;;
11614;SDS011;5863;52.832;4.758;2022-11-10T12:11:04;18.58;;;3.65;;
11614;SDS011;5863;52.832;4.758;2022-11-10T12:13:36;15.57;;;3.33;;
11614;SDS011;5863;52.832;4.758;2022-11-10T12:16:10;15.07;;;3.78;;
11614;SDS011;5863;52.832;4.758;2022-11-10T12:18:44;14.32;;;2.88;;
11614;SDS011;5863;52.832;4.758;2022-11-10T12:21:24;16.27;;;3.33;;
11614;SDS011;5863;52.832;4.758;2022-11-10T12:24:11;16.30;;;3.28;;
11614;SDS011;5863;52.832;4.758;2022-11-10T12:26:59;17.95;;;3.25;;
11614;SDS011;5863;52.832;4.758;2022-11-10T12:29:33;12.45;;;3.10;;
11614;SDS011;5863;52.832;4.758;2022-11-10T12:32:08;13.15;;;2.85;;
11614;SDS011;5863;52.832;4.758;2022-11-10T12:34:41;12.75;;;3.00;;
11614;SDS011;5863;52.832;4.758;2022-11-10T12:37:15;15.40;;;2.70;;
11614;SDS011;5863;52.832;4.758;2022-11-10T12:39:47;14.18;;;3.60;;
11614;SDS011;5863;52.832;4.758;2022-11-10T12:42:20;16.00;;;3.30;;
11614;SDS011;5863;52.832;4.758;2022-11-10T12:44:53;17.05;;;3.35;;
11614;SDS011;5863;52.832;4.758;2022-11-10T12:47:25;14.05;;;3.05;;
11614;SDS011;5863;52.832;4.758;2022-11-10T12:49:55;16.20;;;3.58;;
11614;SDS011;5863;52.832;4.758;2022-11-10T12:52:31;12.68;;;2.53;;
11614;SDS011;5863;52.832;4.758;2022-11-10T12:55:03;16.00;;;3.28;;
11614;SDS011;5863;52.832;4.758;2022-11-10T12:57:30;18.38;;;3.05;;
11614;SDS011;5863;52.832;4.758;2022-11-10T12:59:58;13.75;;;3.30;;
11614;SDS011;5863;52.832;4.758;2022-11-10T13:02:28;25.90;;;4.13;;
11614;SDS011;5863;52.832;4.758;2022-11-10T13:05:08;17.83;;;3.90;;
11614;SDS011;5863;52.832;4.758;2022-11-10T13:07:44;24.98;;;4.07;;
11614;SDS011;5863;52.832;4.758;2022-11-10T13:10:14;22.55;;;4.75;;
11614;SDS011;5863;52.832;4.758;2022-11-10T13:12:57;27.42;;;4.63;;
11614;SDS011;5863;52.832;4.758;2022-11-10T13:18:21;22.40;;;4.40;;
11614;SDS011;5863;52.832;4.758;2022-11-10T13:21:03;20.13;;;4.20;;
11614;SDS011;5863;52.832;4.758;2022-11-10T13:23:31;22.42;;;4.30;;
11614;SDS011;5863;52.832;4.758;2022-11-10T13:26:00;23.77;;;4.45;;
11614;SDS011;5863;52.832;4.758;2022-11-10T13:31:39;17.77;;;4.43;;
11614;SDS011;5863;52.832;4.758;2022-11-10T13:34:26;25.50;;;4.95;;
11614;SDS011;5863;52.832;4.758;2022-11-10T13:36:55;22.98;;;5.18;;
11614;SDS011;5863;52.832;4.758;2022-11-10T13:39:24;28.02;;;5.40;;
11614;SDS011;5863;52.832;4.758;2022-11-10T13:41:55;24.65;;;4.70;;
11614;SDS011;5863;52.832;4.758;2022-11-10T13:44:26;22.30;;;4.68;;
11614;SDS011;5863;52.832;4.758;2022-11-10T13:46:57;23.45;;;4.53;;
11614;SDS011;5863;52.832;4.758;2022-11-10T13:49:38;24.92;;;4.88;;
11614;SDS011;5863;52.832;4.758;2022-11-10T13:52:17;18.33;;;4.18;;
11614;SDS011;5863;52.832;4.758;2022-11-10T13:54:55;26.85;;;4.80;;
11614;SDS011;5863;52.832;4.758;2022-11-10T14:00:20;20.63;;;4.70;;
11614;SDS011;5863;52.832;4.758;2022-11-10T14:02:51;26.20;;;5.03;;
11614;SDS011;5863;52.832;4.758;2022-11-10T14:08:29;17.45;;;4.50;;
11614;SDS011;5863;52.832;4.758;2022-11-10T14:11:05;23.00;;;4.53;;
11614;SDS011;5863;52.832;4.758;2022-11-10T14:13:46;21.00;;;4.78;;
11614;SDS011;5863;52.832;4.758;2022-11-10T14:16:18;25.30;;;4.40;;
11614;SDS011;5863;52.832;4.758;2022-11-10T14:19:00;21.17;;;4.45;;
11614;SDS011;5863;52.832;4.758;2022-11-10T14:21:32;13.13;;;4.00;;
11614;SDS011;5863;52.832;4.758;2022-11-10T14:24:12;19.00;;;3.75;;
11614;SDS011;5863;52.832;4.758;2022-11-10T14:26:45;16.42;;;4.32;;
11614;SDS011;5863;52.832;4.758;2022-11-10T14:29:26;18.45;;;4.30;;
11614;SDS011;5863;52.832;4.758;2022-11-10T14:31:54;22.02;;;4.47;;
11614;SDS011;5863;52.832;4.758;2022-11-10T14:34:22;18.27;;;4.32;;
11614;SDS011;5863;52.832;4.758;2022-11-10T14:36:49;21.27;;;4.60;;
11614;SDS011;5863;52.832;4.758;2022-11-10T14:39:18;22.02;;;5.53;;
11614;SDS011;5863;52.832;4.758;2022-11-10T14:41:50;23.38;;;5.00;;
11614;SDS011;5863;52.832;4.758;2022-11-10T14:44:21;19.98;;;4.53;;
11614;SDS011;5863;52.832;4.758;2022-11-10T14:46:49;23.75;;;4.88;;
11614;SDS011;5863;52.832;4.758;2022-11-10T14:49:20;24.13;;;4.82;;
11614;SDS011;5863;52.832;4.758;2022-11-10T14:51:48;18.23;;;4.32;;
11614;SDS011;5863;52.832;4.758;2022-11-10T14:54:17;24.35;;;5.03;;
11614;SDS011;5863;52.832;4.758;2022-11-10T14:56:48;20.13;;;4.43;;
11614;SDS011;5863;52.832;4.758;2022-11-10T14:59:16;22.17;;;4.55;;
11614;SDS011;5863;52.832;4.758;2022-11-10T15:01:49;25.35;;;4.40;;
11614;SDS011;5863;52.832;4.758;2022-11-10T15:04:18;24.83;;;4.70;;
11614;SDS011;5863;52.832;4.758;2022-11-10T15:06:50;22.70;;;5.22;;
11614;SDS011;5863;52.832;4.758;2022-11-10T15:09:21;20.60;;;4.43;;
11614;SDS011;5863;52.832;4.758;2022-11-10T15:11:50;25.48;;;4.32;;
11614;SDS011;5863;52.832;4.758;2022-11-10T15:14:30;19.95;;;4.25;;
11614;SDS011;5863;52.832;4.758;2022-11-10T15:17:03;20.02;;;4.50;;
11614;SDS011;5863;52.832;4.758;2022-11-10T15:19:34;17.25;;;4.10;;
11614;SDS011;5863;52.832;4.758;2022-11-10T15:22:05;21.38;;;4.13;;
11614;SDS011;5863;52.832;4.758;2022-11-10T15:24:41;20.73;;;3.97;;